createdAt,value
2019-05-19T00:03:05.552Z,99.90
2019-05-19T00:09:10.286Z,99.90
2019-05-19T00:15:15.064Z,99.90
2019-05-19T00:21:19.620Z,99.90
2019-05-19T00:27:24.188Z,99.90
2019-05-19T00:33:28.726Z,99.90
2019-05-19T00:39:33.335Z,99.90
2019-05-19T00:45:37.951Z,99.90
2019-05-19T00:51:42.685Z,99.90
2019-05-19T00:57:48.281Z,99.90
2019-05-19T01:03:53.017Z,99.90
2019-05-19T01:09:57.613Z,99.90
2019-05-19T01:16:02.421Z,99.90
2019-05-19T01:22:07.935Z,99.90
2019-05-19T01:28:14.370Z,99.90
2019-05-19T01:34:19.005Z,99.90
2019-05-19T01:40:23.758Z,99.90
2019-05-19T01:46:28.286Z,99.90
2019-05-19T01:52:32.873Z,99.90
2019-05-19T01:58:37.530Z,99.90
2019-05-19T02:04:42.072Z,99.90
2019-05-19T02:10:46.625Z,99.90
2019-05-19T02:16:51.219Z,99.90
2019-05-19T02:22:55.883Z,99.90
2019-05-19T02:29:00.442Z,99.90
2019-05-19T02:35:06.706Z,99.90
2019-05-19T02:41:12.686Z,99.90
2019-05-19T02:47:21.218Z,99.90
2019-05-19T02:53:26.115Z,99.90
2019-05-19T02:59:32.573Z,99.90
2019-05-19T03:05:38.521Z,99.90
2019-05-19T03:11:43.110Z,99.90
2019-05-19T03:17:47.664Z,99.90
2019-05-19T03:23:52.234Z,99.90
2019-05-19T03:29:58.493Z,99.90
2019-05-19T03:36:03.112Z,99.90
2019-05-19T03:42:10.344Z,99.90
2019-05-19T03:48:14.177Z,99.90
2019-05-19T03:54:18.866Z,99.90
2019-05-19T04:00:23.775Z,99.90
2019-05-19T04:06:28.375Z,99.90
2019-05-19T04:12:32.986Z,99.90
2019-05-19T04:18:37.722Z,99.90
2019-05-19T04:24:45.572Z,99.90
2019-05-19T04:30:50.162Z,99.90
2019-05-19T04:36:54.747Z,99.90
2019-05-19T04:42:59.295Z,99.90
2019-05-19T04:49:04.034Z,99.90
2019-05-19T04:55:09.119Z,99.90
2019-05-19T05:01:13.656Z,99.90
2019-05-19T05:07:18.365Z,99.90
2019-05-19T05:13:22.995Z,99.90
2019-05-19T05:19:27.601Z,99.90
2019-05-19T05:25:32.318Z,99.90
2019-05-19T05:31:36.896Z,99.90
2019-05-19T05:37:41.483Z,99.90
2019-05-19T05:43:46.169Z,99.90
2019-05-19T05:49:50.830Z,99.90
2019-05-19T05:55:55.431Z,99.90
2019-05-19T06:01:59.989Z,99.90
2019-05-19T06:08:04.654Z,99.90
2019-05-19T06:14:09.259Z,99.90
2019-05-19T06:20:13.913Z,99.90
2019-05-19T06:26:18.452Z,99.90
2019-05-19T06:32:24.749Z,99.90
2019-05-19T06:38:29.398Z,99.90
2019-05-19T06:44:33.960Z,99.90
2019-05-19T06:50:40.738Z,99.90
2019-05-19T06:56:44.941Z,99.90
2019-05-19T07:02:49.565Z,99.90
2019-05-19T07:08:54.236Z,99.90
2019-05-19T07:14:58.855Z,99.90
2019-05-19T07:21:03.436Z,99.90
2019-05-19T07:27:10.982Z,99.90
2019-05-19T07:33:15.552Z,99.90
2019-05-19T07:39:20.128Z,99.90
2019-05-19T07:45:24.819Z,99.90
2019-05-19T07:51:29.441Z,99.90
2019-05-19T07:57:34.088Z,99.90
2019-05-19T08:03:38.684Z,99.90
2019-05-19T08:09:43.263Z,99.90
2019-05-19T08:15:47.932Z,99.90
2019-05-19T08:21:53.218Z,99.90
2019-05-19T08:28:07.487Z,99.90
2019-05-19T08:34:04.346Z,99.90
2019-05-19T08:40:09.386Z,99.90
2019-05-19T08:46:14.107Z,99.90
2019-05-19T08:52:18.736Z,99.90
2019-05-19T08:58:23.331Z,99.90
2019-05-19T09:04:28.017Z,99.90
2019-05-19T09:10:32.577Z,99.90
2019-05-19T09:16:37.168Z,99.90
2019-05-19T09:22:41.859Z,99.90
2019-05-19T09:28:46.686Z,99.90
2019-05-19T09:34:51.340Z,99.90
2019-05-19T09:40:56.742Z,99.90
2019-05-19T09:47:01.389Z,99.90
2019-05-19T09:53:06.107Z,99.90
2019-05-19T09:59:10.682Z,99.90
2019-05-19T10:05:15.359Z,99.90
2019-05-19T10:11:27.939Z,99.90
2019-05-19T10:17:34.122Z,99.90
2019-05-19T10:23:38.688Z,99.90
2019-05-19T10:29:43.376Z,99.90
2019-05-19T10:35:47.951Z,99.90
2019-05-19T10:41:52.570Z,99.90
2019-05-19T10:47:57.142Z,99.90
2019-05-19T10:54:01.801Z,99.90
2019-05-19T11:00:08.396Z,99.90
2019-05-19T11:06:13.244Z,99.90
2019-05-19T11:12:17.799Z,99.90
2019-05-19T11:18:22.437Z,99.90
2019-05-19T11:24:27.062Z,99.90
2019-05-19T11:30:31.719Z,99.90
2019-05-19T11:36:36.358Z,99.90
2019-05-19T11:42:40.983Z,99.90
2019-05-19T11:48:45.551Z,99.90
2019-05-19T11:54:50.115Z,99.90
2019-05-19T12:00:54.849Z,99.90
2019-05-19T12:06:59.550Z,99.90
2019-05-19T12:13:04.108Z,99.90
2019-05-19T12:19:08.765Z,99.90
2019-05-19T12:25:13.409Z,99.90
2019-05-19T12:31:18.240Z,99.90
2019-05-19T12:37:22.895Z,99.90
2019-05-19T12:43:27.625Z,99.90
2019-05-19T12:49:32.266Z,99.90
2019-05-19T12:55:36.811Z,99.90
2019-05-19T13:01:41.649Z,99.90
2019-05-19T13:07:46.718Z,99.90
2019-05-19T13:13:51.401Z,99.90
2019-05-19T13:19:56.138Z,99.90
2019-05-19T13:26:00.850Z,99.90
2019-05-19T13:32:05.482Z,97.10
2019-05-19T13:38:10.082Z,92.20
2019-05-19T13:44:14.699Z,81.00
2019-05-19T13:50:19.521Z,82.00
2019-05-19T13:56:24.177Z,73.00
2019-05-19T14:02:28.716Z,71.70
2019-05-19T14:08:33.336Z,69.70
2019-05-19T14:14:38.023Z,75.40
2019-05-19T14:20:45.615Z,79.50
2019-05-19T14:26:50.176Z,79.90
2019-05-19T14:32:57.532Z,79.60
2019-05-19T14:39:05.360Z,84.80
2019-05-19T14:45:09.294Z,90.70
2019-05-19T14:51:13.853Z,93.40
2019-05-19T14:57:18.433Z,95.50
2019-05-19T15:03:23.226Z,98.80
2019-05-19T15:09:28.055Z,99.50
2019-05-19T15:15:32.739Z,99.90
2019-05-19T15:21:37.344Z,99.40
2019-05-19T15:27:41.917Z,99.90
2019-05-19T15:33:46.485Z,99.90
2019-05-19T15:39:51.279Z,99.90
2019-05-19T15:45:55.862Z,99.90
2019-05-19T15:52:04.206Z,99.90
2019-05-19T15:58:16.027Z,99.90
2019-05-19T16:04:13.267Z,99.90
2019-05-19T16:10:19.223Z,99.90
2019-05-19T16:16:25.502Z,99.90
2019-05-19T16:22:30.065Z,99.90
2019-05-19T16:28:34.602Z,99.90
2019-05-19T16:34:39.228Z,99.90
2019-05-19T16:40:45.471Z,99.90
2019-05-19T16:46:50.140Z,99.90
2019-05-19T16:52:54.792Z,99.90
2019-05-19T16:58:59.484Z,99.90
2019-05-19T17:05:05.784Z,99.90
2019-05-19T17:11:18.006Z,99.90
2019-05-19T17:17:16.962Z,99.90
2019-05-19T17:23:21.587Z,99.90
2019-05-19T17:29:26.297Z,99.90
2019-05-19T17:35:30.950Z,99.90
2019-05-19T17:41:35.624Z,99.90
2019-05-19T17:47:40.271Z,99.90
2019-05-19T17:53:45.000Z,99.90
2019-05-19T17:59:50.940Z,99.90
2019-05-19T18:05:55.579Z,99.90
2019-05-19T18:12:00.217Z,99.90
2019-05-19T18:18:05.104Z,99.90
2019-05-19T18:24:09.785Z,99.90
2019-05-19T18:30:15.170Z,99.90
2019-05-19T18:36:19.801Z,99.90
2019-05-19T18:42:24.422Z,99.90
2019-05-19T18:48:29.079Z,99.90
2019-05-19T18:54:33.627Z,99.90
2019-05-19T19:00:39.527Z,99.90
2019-05-19T19:06:44.459Z,99.90
2019-05-19T19:12:49.427Z,99.90
2019-05-19T19:18:54.159Z,99.90
2019-05-19T19:24:58.834Z,99.90
2019-05-19T19:31:03.646Z,99.90
2019-05-19T19:37:08.348Z,99.90
2019-05-19T19:43:12.973Z,99.90
2019-05-19T19:49:17.627Z,99.90
2019-05-19T19:55:22.243Z,99.90
2019-05-19T20:01:26.880Z,99.90
2019-05-19T20:07:31.521Z,99.90
2019-05-19T20:13:36.118Z,99.90
2019-05-19T20:19:41.799Z,99.90
2019-05-19T20:25:46.506Z,99.90
2019-05-19T20:31:51.167Z,99.90
2019-05-19T20:37:55.800Z,99.90
2019-05-19T20:44:00.389Z,99.90
2019-05-19T20:50:07.548Z,99.90
2019-05-19T20:56:12.152Z,99.90
2019-05-19T21:02:16.861Z,99.90
2019-05-19T21:08:21.529Z,99.90
2019-05-19T21:14:26.192Z,99.90
2019-05-19T21:20:30.741Z,99.90
2019-05-19T21:26:35.501Z,99.90
2019-05-19T21:32:40.096Z,99.90
2019-05-19T21:38:44.737Z,99.90
2019-05-19T21:44:49.300Z,99.90
2019-05-19T21:50:57.068Z,99.90
2019-05-19T21:57:01.634Z,99.90
2019-05-19T22:03:06.403Z,99.90
2019-05-19T22:09:11.118Z,99.90
2019-05-19T22:15:15.749Z,99.90
2019-05-19T22:21:20.326Z,99.90
2019-05-19T22:27:24.876Z,99.90
2019-05-19T22:33:29.516Z,99.90
2019-05-19T22:39:34.144Z,99.90
2019-05-19T22:45:38.710Z,99.90
2019-05-19T22:51:43.463Z,99.90
2019-05-19T22:57:48.019Z,99.90
2019-05-19T23:03:52.614Z,99.90
2019-05-19T23:09:57.180Z,99.90
2019-05-19T23:16:01.752Z,99.90
2019-05-19T23:22:06.402Z,99.90
2019-05-19T23:28:10.957Z,99.90
2019-05-19T23:34:15.516Z,99.90
2019-05-19T23:40:20.228Z,99.90
2019-05-19T23:46:24.907Z,99.90
2019-05-19T23:52:29.492Z,99.90
2019-05-19T23:58:34.049Z,99.90
